sensor_id;sensor_type;location;lat;lon;timestamp;P1;durP1;ratioP1;P2;durP2;ratioP2
8094;SDS011;4090;49.270;8.696;2023-09-19T00:00:09;2.03;;;1.40;;
8094;SDS011;4090;49.270;8.696;2023-09-19T00:02:53;2.00;;;1.20;;
8094;SDS011;4090;49.270;8.696;2023-09-19T00:05:38;1.58;;;1.27;;
8094;SDS011;4090;49.270;8.696;2023-09-19T00:08:24;5.10;;;1.27;;
8094;SDS011;4090;49.270;8.696;2023-09-19T00:11:07;3.03;;;1.35;;
8094;SDS011;4090;49.270;8.696;2023-09-19T00:13:51;4.15;;;1.60;;
8094;SDS011;4090;49.270;8.696;2023-09-19T00:16:34;5.07;;;1.77;;
8094;SDS011;4090;49.270;8.696;2023-09-19T00:19:17;2.25;;;1.55;;
8094;SDS011;4090;49.270;8.696;2023-09-19T00:21:59;2.70;;;1.30;;
8094;SDS011;4090;49.270;8.696;2023-09-19T00:24:40;5.13;;;2.13;;
8094;SDS011;4090;49.270;8.696;2023-09-19T00:27:22;6.32;;;2.38;;
8094;SDS011;4090;49.270;8.696;2023-09-19T00:30:05;3.75;;;1.40;;
8094;SDS011;4090;49.270;8.696;2023-09-19T00:32:55;2.90;;;1.30;;
8094;SDS011;4090;49.270;8.696;2023-09-19T00:35:38;3.83;;;1.63;;
8094;SDS011;4090;49.270;8.696;2023-09-19T00:38:19;1.85;;;1.48;;
8094;SDS011;4090;49.270;8.696;2023-09-19T00:41:04;3.58;;;1.33;;
8094;SDS011;4090;49.270;8.696;2023-09-19T00:43:47;2.65;;;1.40;;
8094;SDS011;4090;49.270;8.696;2023-09-19T00:46:30;3.38;;;1.40;;
8094;SDS011;4090;49.270;8.696;2023-09-19T00:49:14;1.70;;;1.45;;
8094;SDS011;4090;49.270;8.696;2023-09-19T00:51:56;2.60;;;1.30;;
8094;SDS011;4090;49.270;8.696;2023-09-19T00:54:40;3.40;;;1.48;;
8094;SDS011;4090;49.270;8.696;2023-09-19T00:57:22;2.75;;;1.50;;
8094;SDS011;4090;49.270;8.696;2023-09-19T01:00:05;2.15;;;1.38;;
8094;SDS011;4090;49.270;8.696;2023-09-19T01:02:55;2.25;;;1.30;;
8094;SDS011;4090;49.270;8.696;2023-09-19T01:05:38;1.38;;;1.27;;
8094;SDS011;4090;49.270;8.696;2023-09-19T01:08:21;3.35;;;1.50;;
8094;SDS011;4090;49.270;8.696;2023-09-19T01:11:06;3.80;;;1.50;;
8094;SDS011;4090;49.270;8.696;2023-09-19T01:13:55;3.13;;;1.48;;
8094;SDS011;4090;49.270;8.696;2023-09-19T01:16:45;6.38;;;1.58;;
8094;SDS011;4090;49.270;8.696;2023-09-19T01:20:03;2.53;;;1.33;;
8094;SDS011;4090;49.270;8.696;2023-09-19T01:23:00;2.70;;;1.48;;
8094;SDS011;4090;49.270;8.696;2023-09-19T01:26:05;3.83;;;1.60;;
8094;SDS011;4090;49.270;8.696;2023-09-19T01:29:11;2.60;;;1.60;;
8094;SDS011;4090;49.270;8.696;2023-09-19T01:32:03;2.30;;;1.20;;
8094;SDS011;4090;49.270;8.696;2023-09-19T01:34:46;1.85;;;1.42;;
8094;SDS011;4090;49.270;8.696;2023-09-19T01:37:29;1.60;;;1.30;;
8094;SDS011;4090;49.270;8.696;2023-09-19T01:40:12;3.70;;;1.83;;
8094;SDS011;4090;49.270;8.696;2023-09-19T01:43:04;3.95;;;1.60;;
8094;SDS011;4090;49.270;8.696;2023-09-19T01:45:55;1.60;;;1.40;;
8094;SDS011;4090;49.270;8.696;2023-09-19T01:48:49;3.45;;;1.40;;
8094;SDS011;4090;49.270;8.696;2023-09-19T01:51:46;2.63;;;1.50;;
8094;SDS011;4090;49.270;8.696;2023-09-19T01:54:40;2.58;;;1.40;;
8094;SDS011;4090;49.270;8.696;2023-09-19T01:57:27;4.15;;;1.17;;
8094;SDS011;4090;49.270;8.696;2023-09-19T02:00:13;2.45;;;1.35;;
8094;SDS011;4090;49.270;8.696;2023-09-19T02:02:58;1.25;;;1.15;;
8094;SDS011;4090;49.270;8.696;2023-09-19T02:05:42;3.22;;;1.48;;
8094;SDS011;4090;49.270;8.696;2023-09-19T02:08:30;3.40;;;1.20;;
8094;SDS011;4090;49.270;8.696;2023-09-19T02:11:13;1.58;;;1.30;;
8094;SDS011;4090;49.270;8.696;2023-09-19T02:13:55;2.30;;;1.55;;
8094;SDS011;4090;49.270;8.696;2023-09-19T02:16:37;3.00;;;1.85;;
8094;SDS011;4090;49.270;8.696;2023-09-19T02:19:19;1.98;;;1.25;;
8094;SDS011;4090;49.270;8.696;2023-09-19T02:22:03;2.38;;;1.17;;
8094;SDS011;4090;49.270;8.696;2023-09-19T02:24:47;1.67;;;1.25;;
8094;SDS011;4090;49.270;8.696;2023-09-19T02:27:29;1.67;;;1.30;;
8094;SDS011;4090;49.270;8.696;2023-09-19T02:30:13;2.30;;;1.50;;
8094;SDS011;4090;49.270;8.696;2023-09-19T02:32:56;2.03;;;1.40;;
8094;SDS011;4090;49.270;8.696;2023-09-19T02:35:38;1.73;;;1.63;;
8094;SDS011;4090;49.270;8.696;2023-09-19T02:38:21;3.10;;;1.50;;
8094;SDS011;4090;49.270;8.696;2023-09-19T02:41:05;1.73;;;1.20;;
8094;SDS011;4090;49.270;8.696;2023-09-19T02:43:47;3.20;;;1.13;;
8094;SDS011;4090;49.270;8.696;2023-09-19T02:46:28;2.63;;;1.27;;
8094;SDS011;4090;49.270;8.696;2023-09-19T02:49:10;6.05;;;1.48;;
8094;SDS011;4090;49.270;8.696;2023-09-19T02:51:53;3.08;;;1.50;;
8094;SDS011;4090;49.270;8.696;2023-09-19T02:54:37;3.47;;;1.35;;
8094;SDS011;4090;49.270;8.696;2023-09-19T02:57:19;1.90;;;1.13;;
8094;SDS011;4090;49.270;8.696;2023-09-19T03:00:01;2.03;;;1.60;;
8094;SDS011;4090;49.270;8.696;2023-09-19T03:02:45;3.47;;;1.73;;
8094;SDS011;4090;49.270;8.696;2023-09-19T03:05:27;5.75;;;1.80;;
8094;SDS011;4090;49.270;8.696;2023-09-19T03:08:11;3.38;;;1.70;;
8094;SDS011;4090;49.270;8.696;2023-09-19T03:10:56;4.93;;;1.85;;
8094;SDS011;4090;49.270;8.696;2023-09-19T03:13:38;2.08;;;1.52;;
8094;SDS011;4090;49.270;8.696;2023-09-19T03:16:20;3.80;;;1.60;;
8094;SDS011;4090;49.270;8.696;2023-09-19T03:19:04;7.10;;;1.90;;
8094;SDS011;4090;49.270;8.696;2023-09-19T03:21:47;6.55;;;2.00;;
8094;SDS011;4090;49.270;8.696;2023-09-19T03:24:31;2.28;;;1.77;;
8094;SDS011;4090;49.270;8.696;2023-09-19T03:27:16;3.58;;;1.73;;
8094;SDS011;4090;49.270;8.696;2023-09-19T03:29:58;4.55;;;1.77;;
8094;SDS011;4090;49.270;8.696;2023-09-19T03:32:43;1.60;;;1.50;;
8094;SDS011;4090;49.270;8.696;2023-09-19T03:35:26;5.15;;;1.60;;
8094;SDS011;4090;49.270;8.696;2023-09-19T03:38:08;4.18;;;1.67;;
8094;SDS011;4090;49.270;8.696;2023-09-19T03:40:50;3.60;;;1.40;;
8094;SDS011;4090;49.270;8.696;2023-09-19T03:43:33;4.70;;;1.83;;
8094;SDS011;4090;49.270;8.696;2023-09-19T03:46:15;4.05;;;1.88;;
8094;SDS011;4090;49.270;8.696;2023-09-19T03:48:58;1.58;;;1.40;;
8094;SDS011;4090;49.270;8.696;2023-09-19T03:51:40;5.28;;;2.10;;
8094;SDS011;4090;49.270;8.696;2023-09-19T03:54:22;4.75;;;1.52;;
8094;SDS011;4090;49.270;8.696;2023-09-19T03:57:04;5.57;;;2.00;;
8094;SDS011;4090;49.270;8.696;2023-09-19T03:59:47;2.92;;;1.80;;
8094;SDS011;4090;49.270;8.696;2023-09-19T04:02:29;2.38;;;1.70;;
8094;SDS011;4090;49.270;8.696;2023-09-19T04:05:13;4.70;;;2.30;;
8094;SDS011;4090;49.270;8.696;2023-09-19T04:07:55;2.55;;;1.60;;
8094;SDS011;4090;49.270;8.696;2023-09-19T04:10:37;2.08;;;1.65;;
8094;SDS011;4090;49.270;8.696;2023-09-19T04:13:18;4.18;;;1.73;;
8094;SDS011;4090;49.270;8.696;2023-09-19T04:16:02;4.80;;;1.73;;
8094;SDS011;4090;49.270;8.696;2023-09-19T04:18:45;5.95;;;1.90;;
8094;SDS011;4090;49.270;8.696;2023-09-19T04:21:27;3.90;;;1.75;;
8094;SDS011;4090;49.270;8.696;2023-09-19T04:24:09;2.10;;;1.90;;
8094;SDS011;4090;49.270;8.696;2023-09-19T04:26:52;4.47;;;1.58;;
8094;SDS011;4090;49.270;8.696;2023-09-19T04:29:34;4.50;;;1.80;;
8094;SDS011;4090;49.270;8.696;2023-09-19T04:32:17;5.00;;;2.00;;
8094;SDS011;4090;49.270;8.696;2023-09-19T04:34:59;3.70;;;1.73;;
8094;SDS011;4090;49.270;8.696;2023-09-19T04:37:43;4.03;;;1.98;;
8094;SDS011;4090;49.270;8.696;2023-09-19T04:40:25;6.15;;;2.38;;
8094;SDS011;4090;49.270;8.696;2023-09-19T04:43:07;3.78;;;2.38;;
8094;SDS011;4090;49.270;8.696;2023-09-19T04:45:49;3.95;;;2.63;;
8094;SDS011;4090;49.270;8.696;2023-09-19T04:48:35;4.63;;;1.85;;
8094;SDS011;4090;49.270;8.696;2023-09-19T04:51:18;3.00;;;2.40;;
8094;SDS011;4090;49.270;8.696;2023-09-19T04:54:00;5.18;;;2.08;;
8094;SDS011;4090;49.270;8.696;2023-09-19T04:56:42;3.97;;;1.80;;
8094;SDS011;4090;49.270;8.696;2023-09-19T04:59:24;4.60;;;2.08;;
8094;SDS011;4090;49.270;8.696;2023-09-19T05:02:06;3.17;;;1.73;;
8094;SDS011;4090;49.270;8.696;2023-09-19T05:04:50;2.67;;;1.90;;
8094;SDS011;4090;49.270;8.696;2023-09-19T05:07:32;4.55;;;1.92;;
8094;SDS011;4090;49.270;8.696;2023-09-19T05:10:15;11.98;;;2.22;;
8094;SDS011;4090;49.270;8.696;2023-09-19T05:12:58;5.10;;;2.38;;
8094;SDS011;4090;49.270;8.696;2023-09-19T05:15:41;2.67;;;2.13;;
8094;SDS011;4090;49.270;8.696;2023-09-19T05:18:23;4.90;;;1.98;;
8094;SDS011;4090;49.270;8.696;2023-09-19T05:21:06;6.60;;;2.17;;
8094;SDS011;4090;49.270;8.696;2023-09-19T05:23:49;7.22;;;2.30;;
8094;SDS011;4090;49.270;8.696;2023-09-19T05:26:33;8.57;;;2.40;;
8094;SDS011;4090;49.270;8.696;2023-09-19T05:29:14;4.47;;;2.00;;
8094;SDS011;4090;49.270;8.696;2023-09-19T05:31:56;5.28;;;1.95;;
8094;SDS011;4090;49.270;8.696;2023-09-19T05:34:38;5.68;;;2.00;;
8094;SDS011;4090;49.270;8.696;2023-09-19T05:37:21;2.60;;;1.90;;
8094;SDS011;4090;49.270;8.696;2023-09-19T05:40:06;3.33;;;1.92;;
8094;SDS011;4090;49.270;8.696;2023-09-19T05:42:52;4.53;;;2.00;;
8094;SDS011;4090;49.270;8.696;2023-09-19T05:45:34;4.78;;;2.10;;
8094;SDS011;4090;49.270;8.696;2023-09-19T05:48:16;3.55;;;2.30;;
8094;SDS011;4090;49.270;8.696;2023-09-19T05:50:58;4.43;;;1.83;;
8094;SDS011;4090;49.270;8.696;2023-09-19T05:53:43;7.65;;;2.60;;
8094;SDS011;4090;49.270;8.696;2023-09-19T05:56:24;5.60;;;2.63;;
8094;SDS011;4090;49.270;8.696;2023-09-19T05:59:07;3.28;;;2.88;;
8094;SDS011;4090;49.270;8.696;2023-09-19T06:01:49;6.93;;;3.47;;
8094;SDS011;4090;49.270;8.696;2023-09-19T06:04:32;6.53;;;3.45;;
8094;SDS011;4090;49.270;8.696;2023-09-19T06:07:14;8.80;;;3.35;;
8094;SDS011;4090;49.270;8.696;2023-09-19T06:09:58;5.38;;;2.92;;
8094;SDS011;4090;49.270;8.696;2023-09-19T06:12:40;6.03;;;2.97;;
8094;SDS011;4090;49.270;8.696;2023-09-19T06:15:25;4.90;;;1.90;;
8094;SDS011;4090;49.270;8.696;2023-09-19T06:18:09;6.25;;;2.60;;
8094;SDS011;4090;49.270;8.696;2023-09-19T06:20:55;4.82;;;2.22;;
8094;SDS011;4090;49.270;8.696;2023-09-19T06:23:38;3.58;;;1.98;;
8094;SDS011;4090;49.270;8.696;2023-09-19T06:26:23;6.88;;;2.50;;
8094;SDS011;4090;49.270;8.696;2023-09-19T06:29:07;7.63;;;2.10;;
8094;SDS011;4090;49.270;8.696;2023-09-19T06:31:48;4.75;;;2.95;;
8094;SDS011;4090;49.270;8.696;2023-09-19T06:34:31;5.80;;;2.45;;
8094;SDS011;4090;49.270;8.696;2023-09-19T06:37:13;5.18;;;2.28;;
8094;SDS011;4090;49.270;8.696;2023-09-19T06:39:55;4.63;;;2.20;;
8094;SDS011;4090;49.270;8.696;2023-09-19T06:42:38;4.60;;;2.28;;
8094;SDS011;4090;49.270;8.696;2023-09-19T06:45:21;5.03;;;2.10;;
8094;SDS011;4090;49.270;8.696;2023-09-19T06:48:03;6.38;;;2.47;;
8094;SDS011;4090;49.270;8.696;2023-09-19T06:50:45;4.75;;;2.83;;
8094;SDS011;4090;49.270;8.696;2023-09-19T06:53:28;5.53;;;2.78;;
8094;SDS011;4090;49.270;8.696;2023-09-19T06:56:11;5.10;;;3.13;;
8094;SDS011;4090;49.270;8.696;2023-09-19T06:58:55;6.18;;;3.63;;
8094;SDS011;4090;49.270;8.696;2023-09-19T07:01:36;6.00;;;3.38;;
8094;SDS011;4090;49.270;8.696;2023-09-19T07:04:20;7.78;;;3.30;;
8094;SDS011;4090;49.270;8.696;2023-09-19T07:07:02;7.10;;;3.17;;
8094;SDS011;4090;49.270;8.696;2023-09-19T07:09:44;6.05;;;2.83;;
8094;SDS011;4090;49.270;8.696;2023-09-19T07:12:29;3.58;;;2.60;;
8094;SDS011;4090;49.270;8.696;2023-09-19T07:15:12;5.57;;;2.65;;
8094;SDS011;4090;49.270;8.696;2023-09-19T07:17:54;7.35;;;2.83;;
8094;SDS011;4090;49.270;8.696;2023-09-19T07:20:36;9.57;;;2.80;;
8094;SDS011;4090;49.270;8.696;2023-09-19T07:23:18;8.43;;;2.88;;
8094;SDS011;4090;49.270;8.696;2023-09-19T07:26:03;4.22;;;2.40;;
8094;SDS011;4090;49.270;8.696;2023-09-19T07:28:45;3.80;;;2.00;;
8094;SDS011;4090;49.270;8.696;2023-09-19T07:31:28;6.18;;;2.17;;
8094;SDS011;4090;49.270;8.696;2023-09-19T07:34:11;5.18;;;1.90;;
8094;SDS011;4090;49.270;8.696;2023-09-19T07:36:54;5.00;;;2.17;;
8094;SDS011;4090;49.270;8.696;2023-09-19T07:39:36;3.65;;;1.98;;
8094;SDS011;4090;49.270;8.696;2023-09-19T07:42:21;3.53;;;1.80;;
8094;SDS011;4090;49.270;8.696;2023-09-19T07:45:03;4.72;;;2.05;;
8094;SDS011;4090;49.270;8.696;2023-09-19T07:47:47;3.55;;;2.10;;
8094;SDS011;4090;49.270;8.696;2023-09-19T07:50:30;7.00;;;1.83;;
8094;SDS011;4090;49.270;8.696;2023-09-19T07:53:12;3.63;;;1.92;;
8094;SDS011;4090;49.270;8.696;2023-09-19T07:56:01;3.13;;;1.85;;
8094;SDS011;4090;49.270;8.696;2023-09-19T07:58:44;4.10;;;1.77;;
8094;SDS011;4090;49.270;8.696;2023-09-19T08:01:25;4.25;;;2.05;;
8094;SDS011;4090;49.270;8.696;2023-09-19T08:04:09;3.67;;;1.90;;
8094;SDS011;4090;49.270;8.696;2023-09-19T08:06:51;10.32;;;1.98;;
8094;SDS011;4090;49.270;8.696;2023-09-19T08:09:33;2.90;;;2.00;;
8094;SDS011;4090;49.270;8.696;2023-09-19T08:12:15;3.63;;;2.00;;
8094;SDS011;4090;49.270;8.696;2023-09-19T08:14:57;4.00;;;1.80;;
8094;SDS011;4090;49.270;8.696;2023-09-19T08:17:39;3.72;;;1.90;;
8094;SDS011;4090;49.270;8.696;2023-09-19T08:20:22;3.42;;;1.50;;
8094;SDS011;4090;49.270;8.696;2023-09-19T08:23:04;4.05;;;1.60;;
8094;SDS011;4090;49.270;8.696;2023-09-19T08:25:48;2.33;;;1.67;;
8094;SDS011;4090;49.270;8.696;2023-09-19T08:28:30;3.35;;;1.80;;
8094;SDS011;4090;49.270;8.696;2023-09-19T08:31:12;4.53;;;1.63;;
8094;SDS011;4090;49.270;8.696;2023-09-19T08:33:54;2.72;;;1.50;;
8094;SDS011;4090;49.270;8.696;2023-09-19T08:36:37;4.13;;;2.10;;
8094;SDS011;4090;49.270;8.696;2023-09-19T08:39:21;4.00;;;2.10;;
8094;SDS011;4090;49.270;8.696;2023-09-19T08:42:03;3.30;;;1.75;;
8094;SDS011;4090;49.270;8.696;2023-09-19T08:44:45;2.28;;;1.67;;
8094;SDS011;4090;49.270;8.696;2023-09-19T08:47:30;2.35;;;1.63;;
8094;SDS011;4090;49.270;8.696;2023-09-19T08:50:19;4.40;;;1.88;;
8094;SDS011;4090;49.270;8.696;2023-09-19T08:53:08;3.40;;;1.75;;
8094;SDS011;4090;49.270;8.696;2023-09-19T08:55:52;3.70;;;1.83;;
8094;SDS011;4090;49.270;8.696;2023-09-19T08:58:39;3.95;;;1.90;;
8094;SDS011;4090;49.270;8.696;2023-09-19T09:01:27;3.70;;;1.67;;
8094;SDS011;4090;49.270;8.696;2023-09-19T09:04:10;2.53;;;1.60;;
8094;SDS011;4090;49.270;8.696;2023-09-19T09:06:53;2.47;;;1.60;;
8094;SDS011;4090;49.270;8.696;2023-09-19T09:09:37;3.65;;;2.17;;
8094;SDS011;4090;49.270;8.696;2023-09-19T09:12:22;4.40;;;1.90;;
8094;SDS011;4090;49.270;8.696;2023-09-19T09:15:06;3.63;;;1.45;;
8094;SDS011;4090;49.270;8.696;2023-09-19T09:17:49;6.70;;;2.10;;
8094;SDS011;4090;49.270;8.696;2023-09-19T09:20:33;3.60;;;1.52;;
8094;SDS011;4090;49.270;8.696;2023-09-19T09:23:17;2.08;;;1.50;;
8094;SDS011;4090;49.270;8.696;2023-09-19T09:26:00;2.75;;;1.55;;
8094;SDS011;4090;49.270;8.696;2023-09-19T09:28:45;4.45;;;1.88;;
8094;SDS011;4090;49.270;8.696;2023-09-19T09:31:28;4.38;;;1.70;;
8094;SDS011;4090;49.270;8.696;2023-09-19T09:34:10;5.07;;;1.92;;
8094;SDS011;4090;49.270;8.696;2023-09-19T09:36:54;4.50;;;1.70;;
8094;SDS011;4090;49.270;8.696;2023-09-19T09:39:35;4.35;;;1.73;;
8094;SDS011;4090;49.270;8.696;2023-09-19T09:42:29;5.47;;;2.03;;
8094;SDS011;4090;49.270;8.696;2023-09-19T09:45:14;6.43;;;2.20;;
8094;SDS011;4090;49.270;8.696;2023-09-19T09:47:57;2.10;;;1.80;;
8094;SDS011;4090;49.270;8.696;2023-09-19T09:50:46;4.22;;;1.83;;
8094;SDS011;4090;49.270;8.696;2023-09-19T09:53:36;3.03;;;1.70;;
8094;SDS011;4090;49.270;8.696;2023-09-19T09:56:18;4.47;;;1.70;;
8094;SDS011;4090;49.270;8.696;2023-09-19T09:59:01;5.13;;;1.85;;
8094;SDS011;4090;49.270;8.696;2023-09-19T10:01:47;1.90;;;1.70;;
8094;SDS011;4090;49.270;8.696;2023-09-19T10:04:29;3.10;;;1.98;;
8094;SDS011;4090;49.270;8.696;2023-09-19T10:07:23;3.72;;;2.00;;
8094;SDS011;4090;49.270;8.696;2023-09-19T10:10:12;3.63;;;1.80;;
8094;SDS011;4090;49.270;8.696;2023-09-19T10:12:58;2.70;;;1.80;;
8094;SDS011;4090;49.270;8.696;2023-09-19T10:15:47;2.38;;;1.73;;
8094;SDS011;4090;49.270;8.696;2023-09-19T10:18:31;2.13;;;1.55;;
8094;SDS011;4090;49.270;8.696;2023-09-19T10:21:19;2.80;;;1.80;;
8094;SDS011;4090;49.270;8.696;2023-09-19T10:24:02;2.90;;;1.73;;
8094;SDS011;4090;49.270;8.696;2023-09-19T10:26:48;5.15;;;1.80;;
8094;SDS011;4090;49.270;8.696;2023-09-19T10:29:32;3.15;;;1.52;;
8094;SDS011;4090;49.270;8.696;2023-09-19T10:32:18;3.15;;;1.60;;
8094;SDS011;4090;49.270;8.696;2023-09-19T10:35:02;1.55;;;1.45;;
8094;SDS011;4090;49.270;8.696;2023-09-19T10:37:47;2.33;;;1.63;;
8094;SDS011;4090;49.270;8.696;2023-09-19T10:40:32;1.45;;;1.35;;
8094;SDS011;4090;49.270;8.696;2023-09-19T10:43:16;2.50;;;1.73;;
8094;SDS011;4090;49.270;8.696;2023-09-19T10:46:01;4.32;;;1.50;;
8094;SDS011;4090;49.270;8.696;2023-09-19T10:48:45;2.72;;;1.33;;
8094;SDS011;4090;49.270;8.696;2023-09-19T10:51:29;2.97;;;1.52;;
8094;SDS011;4090;49.270;8.696;2023-09-19T10:54:13;3.25;;;1.77;;
8094;SDS011;4090;49.270;8.696;2023-09-19T10:56:57;3.55;;;1.52;;
8094;SDS011;4090;49.270;8.696;2023-09-19T10:59:42;1.88;;;1.40;;
8094;SDS011;4090;49.270;8.696;2023-09-19T11:03:17;3.45;;;1.50;;
8094;SDS011;4090;49.270;8.696;2023-09-19T11:06:03;3.92;;;1.48;;
8094;SDS011;4090;49.270;8.696;2023-09-19T11:08:52;3.40;;;1.40;;
8094;SDS011;4090;49.270;8.696;2023-09-19T11:11:45;4.15;;;1.70;;
8094;SDS011;4090;49.270;8.696;2023-09-19T11:14:37;4.70;;;1.48;;
8094;SDS011;4090;49.270;8.696;2023-09-19T11:20:26;2.63;;;1.52;;
8094;SDS011;4090;49.270;8.696;2023-09-19T11:23:24;2.92;;;1.40;;
8094;SDS011;4090;49.270;8.696;2023-09-19T11:26:09;3.97;;;1.50;;
8094;SDS011;4090;49.270;8.696;2023-09-19T11:29:28;3.22;;;1.50;;
8094;SDS011;4090;49.270;8.696;2023-09-19T11:32:11;5.22;;;1.50;;
8094;SDS011;4090;49.270;8.696;2023-09-19T11:34:54;3.85;;;1.48;;
8094;SDS011;4090;49.270;8.696;2023-09-19T11:47:18;4.25;;;1.40;;
8094;SDS011;4090;49.270;8.696;2023-09-19T11:50:01;3.08;;;1.10;;
8094;SDS011;4090;49.270;8.696;2023-09-19T11:52:43;1.67;;;1.27;;
8094;SDS011;4090;49.270;8.696;2023-09-19T11:55:28;3.03;;;1.38;;
8094;SDS011;4090;49.270;8.696;2023-09-19T11:58:13;1.55;;;1.40;;
8094;SDS011;4090;49.270;8.696;2023-09-19T12:00:58;4.60;;;1.50;;
8094;SDS011;4090;49.270;8.696;2023-09-19T12:03:45;5.13;;;2.05;;
8094;SDS011;4090;49.270;8.696;2023-09-19T12:06:29;2.42;;;1.40;;
8094;SDS011;4090;49.270;8.696;2023-09-19T12:09:12;4.88;;;1.63;;
8094;SDS011;4090;49.270;8.696;2023-09-19T12:11:57;3.97;;;1.30;;
8094;SDS011;4090;49.270;8.696;2023-09-19T12:14:39;3.15;;;1.25;;
8094;SDS011;4090;49.270;8.696;2023-09-19T12:17:24;3.95;;;1.60;;
8094;SDS011;4090;49.270;8.696;2023-09-19T12:20:16;4.10;;;1.50;;
8094;SDS011;4090;49.270;8.696;2023-09-19T12:22:59;5.40;;;1.60;;
8094;SDS011;4090;49.270;8.696;2023-09-19T12:25:42;5.13;;;1.60;;
8094;SDS011;4090;49.270;8.696;2023-09-19T12:28:27;3.00;;;1.38;;
8094;SDS011;4090;49.270;8.696;2023-09-19T12:31:10;3.95;;;1.60;;
8094;SDS011;4090;49.270;8.696;2023-09-19T12:33:54;2.15;;;1.58;;
8094;SDS011;4090;49.270;8.696;2023-09-19T12:36:36;3.95;;;1.50;;
8094;SDS011;4090;49.270;8.696;2023-09-19T12:39:23;3.22;;;1.40;;
8094;SDS011;4090;49.270;8.696;2023-09-19T12:42:06;4.10;;;1.75;;
8094;SDS011;4090;49.270;8.696;2023-09-19T12:44:50;2.50;;;1.30;;
8094;SDS011;4090;49.270;8.696;2023-09-19T12:47:35;1.98;;;1.40;;
8094;SDS011;4090;49.270;8.696;2023-09-19T12:50:18;3.42;;;1.40;;
8094;SDS011;4090;49.270;8.696;2023-09-19T12:53:14;3.60;;;1.40;;
8094;SDS011;4090;49.270;8.696;2023-09-19T12:56:09;2.15;;;1.50;;
8094;SDS011;4090;49.270;8.696;2023-09-19T12:58:54;3.13;;;1.45;;
8094;SDS011;4090;49.270;8.696;2023-09-19T13:01:39;4.63;;;1.60;;
8094;SDS011;4090;49.270;8.696;2023-09-19T13:04:25;5.57;;;1.50;;
8094;SDS011;4090;49.270;8.696;2023-09-19T13:07:09;2.33;;;1.45;;
8094;SDS011;4090;49.270;8.696;2023-09-19T13:10:26;1.65;;;1.40;;
8094;SDS011;4090;49.270;8.696;2023-09-19T13:13:22;4.68;;;1.58;;
8094;SDS011;4090;49.270;8.696;2023-09-19T13:16:08;3.47;;;1.38;;
8094;SDS011;4090;49.270;8.696;2023-09-19T13:18:50;3.15;;;1.52;;
8094;SDS011;4090;49.270;8.696;2023-09-19T13:21:33;1.80;;;1.33;;
8094;SDS011;4090;49.270;8.696;2023-09-19T13:24:24;2.63;;;1.58;;
8094;SDS011;4090;49.270;8.696;2023-09-19T13:27:08;1.70;;;1.40;;
8094;SDS011;4090;49.270;8.696;2023-09-19T13:29:50;1.48;;;1.20;;
8094;SDS011;4090;49.270;8.696;2023-09-19T13:32:32;2.10;;;1.40;;
8094;SDS011;4090;49.270;8.696;2023-09-19T13:35:14;2.08;;;1.25;;
8094;SDS011;4090;49.270;8.696;2023-09-19T13:37:56;2.88;;;1.25;;
8094;SDS011;4090;49.270;8.696;2023-09-19T13:40:40;2.85;;;1.48;;
8094;SDS011;4090;49.270;8.696;2023-09-19T13:43:22;1.48;;;1.27;;
8094;SDS011;4090;49.270;8.696;2023-09-19T13:46:05;3.60;;;1.48;;
8094;SDS011;4090;49.270;8.696;2023-09-19T13:48:52;5.22;;;1.70;;
8094;SDS011;4090;49.270;8.696;2023-09-19T13:51:35;4.07;;;1.35;;
8094;SDS011;4090;49.270;8.696;2023-09-19T13:54:16;1.95;;;1.10;;
8094;SDS011;4090;49.270;8.696;2023-09-19T13:57:00;1.25;;;1.15;;
8094;SDS011;4090;49.270;8.696;2023-09-19T13:59:42;5.53;;;1.50;;
8094;SDS011;4090;49.270;8.696;2023-09-19T14:02:24;2.53;;;1.50;;
8094;SDS011;4090;49.270;8.696;2023-09-19T14:05:06;4.93;;;1.30;;
8094;SDS011;4090;49.270;8.696;2023-09-19T14:07:48;1.83;;;1.30;;
8094;SDS011;4090;49.270;8.696;2023-09-19T14:10:30;1.95;;;1.25;;
8094;SDS011;4090;49.270;8.696;2023-09-19T14:13:14;2.78;;;1.27;;
8094;SDS011;4090;49.270;8.696;2023-09-19T14:15:55;2.63;;;1.35;;
8094;SDS011;4090;49.270;8.696;2023-09-19T14:18:37;4.10;;;1.38;;
8094;SDS011;4090;49.270;8.696;2023-09-19T14:21:20;1.90;;;1.33;;
8094;SDS011;4090;49.270;8.696;2023-09-19T14:24:02;3.10;;;1.30;;
8094;SDS011;4090;49.270;8.696;2023-09-19T14:26:46;3.85;;;1.40;;
8094;SDS011;4090;49.270;8.696;2023-09-19T14:29:30;1.52;;;1.40;;
8094;SDS011;4090;49.270;8.696;2023-09-19T14:32:12;2.47;;;1.27;;
8094;SDS011;4090;49.270;8.696;2023-09-19T14:34:54;2.95;;;1.70;;
8094;SDS011;4090;49.270;8.696;2023-09-19T14:37:36;5.72;;;1.40;;
8094;SDS011;4090;49.270;8.696;2023-09-19T14:40:19;2.95;;;1.52;;
8094;SDS011;4090;49.270;8.696;2023-09-19T14:43:03;3.13;;;1.30;;
8094;SDS011;4090;49.270;8.696;2023-09-19T14:45:54;2.75;;;1.10;;
8094;SDS011;4090;49.270;8.696;2023-09-19T14:48:37;1.27;;;1.17;;
8094;SDS011;4090;49.270;8.696;2023-09-19T14:51:19;2.85;;;1.58;;
8094;SDS011;4090;49.270;8.696;2023-09-19T14:54:01;1.45;;;1.33;;
8094;SDS011;4090;49.270;8.696;2023-09-19T14:56:43;2.45;;;1.30;;
8094;SDS011;4090;49.270;8.696;2023-09-19T14:59:25;4.05;;;1.60;;
8094;SDS011;4090;49.270;8.696;2023-09-19T15:02:08;3.75;;;1.70;;
8094;SDS011;4090;49.270;8.696;2023-09-19T15:04:51;1.92;;;1.40;;
8094;SDS011;4090;49.270;8.696;2023-09-19T15:07:33;1.80;;;1.30;;
8094;SDS011;4090;49.270;8.696;2023-09-19T15:10:16;3.72;;;1.50;;
8094;SDS011;4090;49.270;8.696;2023-09-19T15:12:58;5.35;;;1.20;;
8094;SDS011;4090;49.270;8.696;2023-09-19T15:15:40;2.92;;;1.20;;
8094;SDS011;4090;49.270;8.696;2023-09-19T15:18:25;1.20;;;1.10;;
8094;SDS011;4090;49.270;8.696;2023-09-19T15:21:07;1.75;;;1.13;;
8094;SDS011;4090;49.270;8.696;2023-09-19T15:23:50;1.50;;;1.40;;
8094;SDS011;4090;49.270;8.696;2023-09-19T15:26:32;2.88;;;1.33;;
8094;SDS011;4090;49.270;8.696;2023-09-19T15:29:14;1.67;;;1.27;;
8094;SDS011;4090;49.270;8.696;2023-09-19T15:31:56;1.40;;;1.17;;
8094;SDS011;4090;49.270;8.696;2023-09-19T15:34:43;1.88;;;1.10;;
8094;SDS011;4090;49.270;8.696;2023-09-19T15:37:25;4.35;;;1.08;;
8094;SDS011;4090;49.270;8.696;2023-09-19T15:40:07;1.48;;;1.20;;
8094;SDS011;4090;49.270;8.696;2023-09-19T15:42:54;3.00;;;1.25;;
8094;SDS011;4090;49.270;8.696;2023-09-19T15:45:36;0.93;;;0.93;;
8094;SDS011;4090;49.270;8.696;2023-09-19T15:48:18;1.75;;;1.10;;
8094;SDS011;4090;49.270;8.696;2023-09-19T15:51:04;2.53;;;1.17;;
8094;SDS011;4090;49.270;8.696;2023-09-19T15:53:46;2.92;;;1.27;;
8094;SDS011;4090;49.270;8.696;2023-09-19T15:56:29;1.63;;;1.20;;
8094;SDS011;4090;49.270;8.696;2023-09-19T15:59:11;2.40;;;1.00;;
8094;SDS011;4090;49.270;8.696;2023-09-19T16:01:53;2.70;;;1.48;;
8094;SDS011;4090;49.270;8.696;2023-09-19T16:04:35;1.48;;;1.20;;
8094;SDS011;4090;49.270;8.696;2023-09-19T16:07:20;3.97;;;1.17;;
8094;SDS011;4090;49.270;8.696;2023-09-19T16:10:02;2.85;;;1.30;;
8094;SDS011;4090;49.270;8.696;2023-09-19T16:12:44;1.38;;;1.23;;
8094;SDS011;4090;49.270;8.696;2023-09-19T16:15:26;1.45;;;1.13;;
8094;SDS011;4090;49.270;8.696;2023-09-19T16:18:08;1.35;;;1.17;;
8094;SDS011;4090;49.270;8.696;2023-09-19T16:20:50;1.20;;;1.10;;
8094;SDS011;4090;49.270;8.696;2023-09-19T16:23:34;2.30;;;1.00;;
8094;SDS011;4090;49.270;8.696;2023-09-19T16:26:16;2.17;;;1.10;;
8094;SDS011;4090;49.270;8.696;2023-09-19T16:29:00;1.73;;;1.13;;
8094;SDS011;4090;49.270;8.696;2023-09-19T16:31:42;1.40;;;1.20;;
8094;SDS011;4090;49.270;8.696;2023-09-19T16:34:25;2.40;;;1.20;;
8094;SDS011;4090;49.270;8.696;2023-09-19T16:37:07;1.38;;;1.27;;
8094;SDS011;4090;49.270;8.696;2023-09-19T16:39:50;2.03;;;1.60;;
8094;SDS011;4090;49.270;8.696;2023-09-19T16:42:32;3.35;;;1.30;;
8094;SDS011;4090;49.270;8.696;2023-09-19T16:45:14;1.38;;;1.27;;
8094;SDS011;4090;49.270;8.696;2023-09-19T16:47:56;12.77;;;7.35;;
8094;SDS011;4090;49.270;8.696;2023-09-19T16:50:38;3.05;;;1.95;;
8094;SDS011;4090;49.270;8.696;2023-09-19T16:53:20;1.50;;;1.38;;
8094;SDS011;4090;49.270;8.696;2023-09-19T16:56:04;1.67;;;1.40;;
8094;SDS011;4090;49.270;8.696;2023-09-19T16:58:49;3.67;;;1.30;;
8094;SDS011;4090;49.270;8.696;2023-09-19T17:01:32;1.27;;;1.13;;
8094;SDS011;4090;49.270;8.696;2023-09-19T17:04:15;2.63;;;1.30;;
8094;SDS011;4090;49.270;8.696;2023-09-19T17:06:57;2.42;;;1.23;;
8094;SDS011;4090;49.270;8.696;2023-09-19T17:09:39;1.70;;;1.05;;
8094;SDS011;4090;49.270;8.696;2023-09-19T17:12:22;1.90;;;1.20;;